createdAt,value
2017-11-12T00:01:16.030Z,82.80
2017-11-12T00:03:43.928Z,82.80
2017-11-12T00:06:11.444Z,83.10
2017-11-12T00:08:38.945Z,83.20
2017-11-12T00:11:06.454Z,83.40
2017-11-12T00:13:33.948Z,83.50
2017-11-12T00:16:01.456Z,83.40
2017-11-12T00:18:28.955Z,83.80
2017-11-12T00:20:56.480Z,83.90
2017-11-12T00:23:23.980Z,83.90
2017-11-12T00:25:52.650Z,83.80
2017-11-12T00:28:20.141Z,84.10
2017-11-12T00:30:48.024Z,84.00
2017-11-12T00:33:15.539Z,84.10
2017-11-12T00:35:43.032Z,84.30
2017-11-12T00:38:10.941Z,84.20
2017-11-12T00:40:38.428Z,84.10
2017-11-12T00:43:06.332Z,84.20
2017-11-12T00:45:33.824Z,84.40
2017-11-12T00:48:01.733Z,84.40
2017-11-12T00:50:29.231Z,84.60
2017-11-12T00:52:57.513Z,84.50
2017-11-12T00:55:25.004Z,84.60
2017-11-12T00:57:53.677Z,84.60
2017-11-12T01:00:21.945Z,85.20
2017-11-12T01:02:49.884Z,84.40
2017-11-12T01:05:18.884Z,85.00
2017-11-12T01:07:46.372Z,84.50
2017-11-12T01:10:13.887Z,84.30
2017-11-12T01:12:41.381Z,84.40
2017-11-12T01:15:08.892Z,84.40
2017-11-12T01:17:36.387Z,84.40
2017-11-12T01:20:03.908Z,84.40
2017-11-12T01:22:31.400Z,84.70
2017-11-12T01:24:59.317Z,84.80
2017-11-12T01:27:26.811Z,84.80
2017-11-12T01:29:55.463Z,84.80
2017-11-12T01:32:23.721Z,84.90
2017-11-12T01:34:51.643Z,84.90
2017-11-12T01:37:20.268Z,84.80
2017-11-12T01:39:48.148Z,84.60
2017-11-12T01:42:15.664Z,84.80
2017-11-12T01:44:43.157Z,84.90
2017-11-12T01:47:10.672Z,84.90
2017-11-12T01:49:38.169Z,84.90
2017-11-12T01:52:05.680Z,84.90
2017-11-12T01:54:33.172Z,84.80
2017-11-12T01:57:01.086Z,84.90
2017-11-12T01:59:28.588Z,84.70
2017-11-12T02:01:56.104Z,84.70
2017-11-12T02:06:53.624Z,84.60
2017-11-12T02:09:21.121Z,84.60
2017-11-12T02:11:48.620Z,84.60
2017-11-12T02:14:16.129Z,84.60
2017-11-12T02:16:43.629Z,84.50
2017-11-12T02:19:11.147Z,83.60
2017-11-12T02:21:38.642Z,81.70
2017-11-12T02:24:07.708Z,82.30
2017-11-12T02:26:36.341Z,82.30
2017-11-12T02:29:04.616Z,83.00
2017-11-12T02:34:00.989Z,82.40
2017-11-12T02:36:28.481Z,82.00
2017-11-12T02:38:56.396Z,83.00
2017-11-12T02:41:23.903Z,83.00
2017-11-12T02:43:51.432Z,83.10
2017-11-12T02:46:18.929Z,83.60
2017-11-12T02:48:46.429Z,83.10
2017-11-12T02:51:14.341Z,82.60
2017-11-12T02:53:42.228Z,82.80
2017-11-12T02:56:10.505Z,84.10
2017-11-12T02:58:38.765Z,84.20
2017-11-12T03:01:07.044Z,84.20
2017-11-12T03:03:35.388Z,83.20
2017-11-12T03:09:24.508Z,83.00
2017-11-12T03:11:52.024Z,82.20
2017-11-12T03:14:19.524Z,82.60
2017-11-12T03:16:47.428Z,82.90
2017-11-12T03:19:14.917Z,82.90
2017-11-12T03:21:43.196Z,83.60
2017-11-12T03:24:11.824Z,82.60
2017-11-12T03:26:39.333Z,82.70
2017-11-12T03:29:07.588Z,82.50
2017-11-12T03:31:35.105Z,81.80
2017-11-12T03:34:02.600Z,82.10
2017-11-12T03:36:30.117Z,82.50
2017-11-12T03:38:58.744Z,82.00
2017-11-12T03:41:26.268Z,82.00
2017-11-12T03:43:53.761Z,82.20
2017-11-12T03:46:22.017Z,82.40
2017-11-12T03:48:49.918Z,82.30
2017-11-12T03:51:17.412Z,82.30
2017-11-12T03:53:44.916Z,82.40
2017-11-12T03:56:13.180Z,82.50
2017-11-12T03:58:40.697Z,82.30
2017-11-12T04:01:08.189Z,82.60
2017-11-12T04:03:36.463Z,82.70
2017-11-12T04:06:04.723Z,82.10
2017-11-12T04:08:33.744Z,82.70
2017-11-12T04:11:01.232Z,82.30
2017-11-12T04:13:29.528Z,83.00
2017-11-12T04:15:57.789Z,82.20
2017-11-12T04:18:25.279Z,81.90
2017-11-12T04:20:53.560Z,82.00
2017-11-12T04:23:21.064Z,81.80
2017-11-12T04:25:48.576Z,81.80
2017-11-12T04:28:16.064Z,81.20
2017-11-12T04:30:43.573Z,80.80
2017-11-12T04:33:11.080Z,80.60
2017-11-12T04:35:38.600Z,80.70
2017-11-12T04:38:06.486Z,80.70
2017-11-12T04:40:34.002Z,81.10
2017-11-12T04:43:02.627Z,80.60
2017-11-12T04:45:30.146Z,80.30
2017-11-12T04:47:59.149Z,80.70
2017-11-12T04:50:26.660Z,80.70
2017-11-12T04:52:54.173Z,80.10
2017-11-12T04:55:21.676Z,80.00
2017-11-12T04:57:49.200Z,80.00
2017-11-12T05:00:16.691Z,80.10
2017-11-12T05:02:44.977Z,80.40
2017-11-12T05:05:13.252Z,81.00
2017-11-12T05:07:41.528Z,81.20
2017-11-12T05:10:10.525Z,80.70
2017-11-12T05:12:38.045Z,81.10
2017-11-12T05:15:05.532Z,81.50
2017-11-12T05:17:33.047Z,81.90
2017-11-12T05:20:00.936Z,82.10
2017-11-12T05:22:29.216Z,82.70
2017-11-12T05:24:57.105Z,82.40
2017-11-12T05:29:54.237Z,82.60
2017-11-12T05:32:22.534Z,83.50
2017-11-12T05:34:50.036Z,83.40
2017-11-12T05:37:17.660Z,83.00
2017-11-12T05:39:45.939Z,82.50
2017-11-12T05:42:13.844Z,82.60
2017-11-12T05:44:41.336Z,82.80
2017-11-12T05:47:08.854Z,83.00
2017-11-12T05:49:36.410Z,83.20
2017-11-12T05:52:03.925Z,83.30
2017-11-12T05:54:31.416Z,83.40
2017-11-12T05:56:58.938Z,83.60
2017-11-12T05:59:26.433Z,83.90
2017-11-12T06:01:53.965Z,83.40
2017-11-12T06:04:21.460Z,83.50
2017-11-12T06:06:49.348Z,83.00
2017-11-12T06:09:16.885Z,83.10
2017-11-12T06:11:44.380Z,83.30
2017-11-12T06:14:12.297Z,83.60
2017-11-12T06:16:39.789Z,83.60
2017-11-12T06:19:08.448Z,83.60
2017-11-12T06:21:35.945Z,84.20
2017-11-12T06:24:03.456Z,84.20
2017-11-12T06:26:30.948Z,83.40
2017-11-12T06:28:58.460Z,83.30
2017-11-12T06:31:25.951Z,83.10
2017-11-12T06:33:53.464Z,83.60
2017-11-12T06:36:21.348Z,83.80
2017-11-12T06:38:48.859Z,83.10
2017-11-12T06:41:16.361Z,83.20
2017-11-12T06:43:44.300Z,83.10
2017-11-12T06:46:12.560Z,84.50
2017-11-12T06:48:40.073Z,83.00
2017-11-12T06:51:07.564Z,83.00
2017-11-12T06:53:35.081Z,83.70
2017-11-12T06:56:02.577Z,83.90
2017-11-12T06:58:30.858Z,83.90
2017-11-12T07:00:59.856Z,83.00
2017-11-12T07:03:27.367Z,83.60
2017-11-12T07:05:55.624Z,84.10
2017-11-12T07:08:23.552Z,83.20
2017-11-12T07:10:51.057Z,83.30
2017-11-12T07:13:19.335Z,83.30
2017-11-12T07:15:46.823Z,83.00
2017-11-12T07:18:15.841Z,82.80
2017-11-12T07:20:43.340Z,82.80
2017-11-12T07:23:10.866Z,83.30
2017-11-12T07:25:39.137Z,83.60
2017-11-12T07:28:07.421Z,83.80
2017-11-12T07:30:34.913Z,83.70
2017-11-12T07:33:02.433Z,83.60
2017-11-12T07:35:29.928Z,83.40
2017-11-12T07:37:57.439Z,83.70
2017-11-12T07:40:25.328Z,83.40
2017-11-12T07:42:52.854Z,83.30
2017-11-12T07:45:20.358Z,83.40
2017-11-12T07:47:47.868Z,84.00
2017-11-12T07:50:15.364Z,83.90
2017-11-12T07:52:42.875Z,84.10
2017-11-12T07:55:10.368Z,84.30
2017-11-12T07:57:38.279Z,84.10
2017-11-12T08:00:05.830Z,84.30
2017-11-12T08:02:33.347Z,84.70
2017-11-12T08:05:01.051Z,84.70
2017-11-12T08:07:29.333Z,84.80
2017-11-12T08:09:56.828Z,84.70
2017-11-12T08:12:24.339Z,84.80
2017-11-12T08:14:52.654Z,85.30
2017-11-12T08:17:20.156Z,85.60
2017-11-12T08:19:47.677Z,85.40
2017-11-12T08:22:15.172Z,85.40
2017-11-12T08:24:42.688Z,85.40
2017-11-12T08:27:10.188Z,85.80
2017-11-12T08:29:38.096Z,85.90
2017-11-12T08:32:05.592Z,86.00
2017-11-12T08:34:33.100Z,85.60
2017-11-12T08:37:00.593Z,85.70
2017-11-12T08:39:28.164Z,85.50
2017-11-12T08:41:55.668Z,85.80
2017-11-12T08:44:23.187Z,86.10
2017-11-12T08:46:50.845Z,86.10
2017-11-12T08:49:18.488Z,86.30
2017-11-12T08:51:45.988Z,86.60
2017-11-12T08:54:13.499Z,86.70
2017-11-12T08:56:40.993Z,86.50
2017-11-12T08:59:08.520Z,86.90
2017-11-12T09:01:36.013Z,87.10
2017-11-12T09:04:03.520Z,87.60
2017-11-12T09:06:31.404Z,87.50
2017-11-12T09:08:58.939Z,87.40
2017-11-12T09:11:26.825Z,87.50
2017-11-12T09:13:54.460Z,87.40
2017-11-12T09:16:21.960Z,87.70
2017-11-12T09:18:49.864Z,87.90
2017-11-12T09:21:18.128Z,88.20
2017-11-12T09:23:46.781Z,87.90
2017-11-12T09:26:15.407Z,88.10
2017-11-12T09:28:43.684Z,88.50
2017-11-12T09:31:11.944Z,88.80
2017-11-12T09:33:40.972Z,88.80
2017-11-12T09:36:08.464Z,88.60
2017-11-12T09:41:04.825Z,88.70
2017-11-12T09:46:02.428Z,88.50
2017-11-12T09:48:29.937Z,88.60
2017-11-12T09:50:57.420Z,88.80
2017-11-12T09:53:24.952Z,88.90
2017-11-12T09:55:53.208Z,89.00
2017-11-12T09:58:20.712Z,88.90
2017-11-12T10:00:48.229Z,88.40
2017-11-12T10:03:15.721Z,88.50
2017-11-12T10:05:43.236Z,88.70
2017-11-12T10:08:10.725Z,89.20
2017-11-12T10:10:38.640Z,88.80
2017-11-12T10:13:06.660Z,88.90
2017-11-12T10:15:34.569Z,89.40
2017-11-12T10:18:02.464Z,89.60
2017-11-12T10:20:30.752Z,90.00
2017-11-12T10:22:58.640Z,89.90
2017-11-12T10:25:26.159Z,89.90
2017-11-12T10:27:53.650Z,89.60
2017-11-12T10:30:21.928Z,89.80
2017-11-12T10:32:49.421Z,89.80
2017-11-12T10:35:16.953Z,89.60
2017-11-12T10:37:44.456Z,89.80
2017-11-12T10:40:12.713Z,89.60
2017-11-12T10:42:40.621Z,89.60
2017-11-12T10:45:08.112Z,89.70
2017-11-12T10:47:35.628Z,89.30
2017-11-12T10:50:03.131Z,89.60
2017-11-12T10:52:30.648Z,89.20
2017-11-12T10:54:58.144Z,89.30
2017-11-12T10:57:25.740Z,89.40
2017-11-12T10:59:53.245Z,89.50
2017-11-12T11:02:21.156Z,89.70
2017-11-12T11:04:48.644Z,89.90
2017-11-12T11:07:16.164Z,90.00
2017-11-12T11:09:44.421Z,90.00
2017-11-12T11:12:12.312Z,89.80
2017-11-12T11:14:39.833Z,89.40
2017-11-12T11:17:08.100Z,89.80
2017-11-12T11:19:35.624Z,89.80
2017-11-12T11:22:03.116Z,89.60
2017-11-12T11:24:31.400Z,90.00
2017-11-12T11:26:59.656Z,89.70
2017-11-12T11:29:27.168Z,88.70
2017-11-12T11:31:54.808Z,89.20
2017-11-12T11:34:23.096Z,89.50
2017-11-12T11:36:50.587Z,89.80
2017-11-12T11:39:18.098Z,89.80
2017-11-12T11:41:45.592Z,89.50
2017-11-12T11:44:13.101Z,89.60
2017-11-12T11:46:40.767Z,89.50
2017-11-12T11:49:08.416Z,89.40
2017-11-12T11:51:35.904Z,89.10
2017-11-12T11:54:03.605Z,89.00
2017-11-12T11:56:32.232Z,89.50
2017-11-12T11:58:59.868Z,89.20
2017-11-12T12:01:27.380Z,88.90
2017-11-12T12:03:55.270Z,88.80
2017-11-12T12:06:23.921Z,88.90
2017-11-12T12:08:51.419Z,89.00
2017-11-12T12:11:20.089Z,88.80
2017-11-12T12:13:48.355Z,89.40
2017-11-12T12:16:17.396Z,89.20
2017-11-12T12:18:44.920Z,89.30
2017-11-12T12:21:12.435Z,89.20
2017-11-12T12:23:39.932Z,89.20
2017-11-12T12:26:07.444Z,89.10
2017-11-12T12:28:35.333Z,89.10
2017-11-12T12:31:03.614Z,89.70
2017-11-12T12:33:32.271Z,89.30
2017-11-12T12:35:59.788Z,89.20
2017-11-12T12:38:27.276Z,89.20
2017-11-12T12:40:54.824Z,89.20
2017-11-12T12:43:23.084Z,89.50
2017-11-12T12:45:50.581Z,89.30
2017-11-12T12:48:19.601Z,89.30
2017-11-12T12:50:47.092Z,89.20
2017-11-12T12:53:14.604Z,89.20
2017-11-12T12:55:42.103Z,89.20
2017-11-12T12:58:09.621Z,89.30
2017-11-12T13:00:37.117Z,89.30
2017-11-12T13:03:04.631Z,89.20
2017-11-12T13:05:33.260Z,89.80
2017-11-12T13:08:01.682Z,89.20
2017-11-12T13:10:29.988Z,89.10
2017-11-12T13:12:57.522Z,88.80
2017-11-12T13:15:25.020Z,88.90
2017-11-12T13:17:52.512Z,88.80
2017-11-12T13:20:20.032Z,88.70
2017-11-12T13:22:47.524Z,88.60
2017-11-12T13:25:15.036Z,88.70
2017-11-12T13:27:42.524Z,88.70
2017-11-12T13:30:10.832Z,89.20
2017-11-12T13:32:39.083Z,88.60
2017-11-12T13:35:07.361Z,88.50
2017-11-12T13:37:34.856Z,88.60
2017-11-12T13:40:02.370Z,88.60
2017-11-12T13:42:30.640Z,88.60
2017-11-12T13:44:58.171Z,88.70
2017-11-12T13:47:27.168Z,88.40
2017-11-12T13:49:54.665Z,88.40
2017-11-12T13:52:22.173Z,88.20
2017-11-12T13:54:50.447Z,88.20
2017-11-12T13:57:19.467Z,88.20
2017-11-12T13:59:47.116Z,87.90
2017-11-12T14:02:14.628Z,87.00
2017-11-12T14:04:42.122Z,87.30
2017-11-12T14:07:09.636Z,87.40
2017-11-12T14:09:37.131Z,87.10
2017-11-12T14:12:04.664Z,87.40
2017-11-12T14:14:32.552Z,87.20
2017-11-12T14:17:00.056Z,87.20
2017-11-12T14:19:27.656Z,87.20
2017-11-12T14:21:55.220Z,87.20
2017-11-12T14:24:22.732Z,87.10
2017-11-12T14:26:50.224Z,87.10
2017-11-12T14:29:17.739Z,87.10
2017-11-12T14:31:45.633Z,86.80
2017-11-12T14:34:13.150Z,86.80
2017-11-12T14:36:40.644Z,86.90
2017-11-12T14:39:08.936Z,87.60
2017-11-12T14:41:36.463Z,86.60
2017-11-12T14:44:03.957Z,86.60
2017-11-12T14:46:31.484Z,86.80
2017-11-12T14:48:59.373Z,86.10
2017-11-12T14:51:26.883Z,86.20
2017-11-12T14:53:55.148Z,86.40
2017-11-12T14:56:22.668Z,86.40
2017-11-12T14:58:50.156Z,86.00
2017-11-12T15:01:17.669Z,86.10
2017-11-12T15:03:45.166Z,85.90
2017-11-12T15:06:12.688Z,85.80
2017-11-12T15:08:40.180Z,85.80
2017-11-12T15:11:08.549Z,86.20
2017-11-12T15:16:04.917Z,85.40
2017-11-12T15:18:32.526Z,85.50
2017-11-12T15:21:00.797Z,85.30
2017-11-12T15:23:28.312Z,85.50
2017-11-12T15:25:55.799Z,85.50
2017-11-12T15:28:23.456Z,85.60
2017-11-12T15:30:50.949Z,85.60
2017-11-12T15:33:18.465Z,85.70
2017-11-12T15:35:45.956Z,85.50
2017-11-12T15:38:13.880Z,81.50
2017-11-12T15:40:41.379Z,78.00
2017-11-12T15:43:08.872Z,78.80
2017-11-12T15:45:36.385Z,79.80
2017-11-12T15:48:03.887Z,81.30
2017-11-12T15:50:31.391Z,82.10
2017-11-12T15:52:58.884Z,82.50
2017-11-12T15:55:26.796Z,82.50
2017-11-12T15:57:54.311Z,82.20
2017-11-12T16:02:50.794Z,82.80
2017-11-12T16:05:18.517Z,83.10
2017-11-12T16:07:46.020Z,83.70
2017-11-12T16:10:13.932Z,83.70
2017-11-12T16:12:41.817Z,84.20
2017-11-12T16:15:09.336Z,83.70
2017-11-12T16:17:36.834Z,83.80
2017-11-12T16:20:04.381Z,84.40
2017-11-12T16:22:33.028Z,84.30
2017-11-12T16:25:01.284Z,83.10
2017-11-12T16:27:28.802Z,83.30
2017-11-12T16:29:56.308Z,82.90
2017-11-12T16:32:23.828Z,83.00
2017-11-12T16:34:51.320Z,82.70
2017-11-12T16:37:19.978Z,83.00
2017-11-12T16:39:48.262Z,83.30
2017-11-12T16:42:15.772Z,83.20
2017-11-12T16:44:43.268Z,82.70
2017-11-12T16:47:10.780Z,82.30
2017-11-12T16:49:39.410Z,81.90
2017-11-12T16:52:06.944Z,82.10
2017-11-12T16:54:34.438Z,81.80
2017-11-12T16:57:01.940Z,81.90
2017-11-12T16:59:29.453Z,81.90
2017-11-12T17:01:56.944Z,82.10
2017-11-12T17:04:24.460Z,82.10
2017-11-12T17:06:52.730Z,82.20
2017-11-12T17:09:21.008Z,82.70
2017-11-12T17:11:48.923Z,82.10
2017-11-12T17:14:16.451Z,82.10
2017-11-12T17:16:43.949Z,82.10
2017-11-12T17:19:11.505Z,82.40
2017-11-12T17:21:40.502Z,82.90
2017-11-12T17:24:07.996Z,82.40
2017-11-12T17:29:05.117Z,83.20
2017-11-12T17:31:32.633Z,82.50
2017-11-12T17:34:00.132Z,82.50
2017-11-12T17:36:27.640Z,82.50
2017-11-12T17:38:55.158Z,82.50
2017-11-12T17:41:23.576Z,83.10
2017-11-12T17:43:51.209Z,82.30
2017-11-12T17:46:18.720Z,82.40
2017-11-12T17:48:46.981Z,82.20
2017-11-12T17:51:14.596Z,82.20
2017-11-12T17:53:42.213Z,82.10
2017-11-12T17:56:09.711Z,82.10
2017-11-12T17:58:37.991Z,82.00
2017-11-12T18:01:05.492Z,82.10
2017-11-12T18:03:33.092Z,82.30
2017-11-12T18:06:00.584Z,81.80
2017-11-12T18:08:28.206Z,82.00
2017-11-12T18:10:55.871Z,81.80
2017-11-12T18:13:24.150Z,82.30
2017-11-12T18:15:52.216Z,82.20
2017-11-12T18:18:19.768Z,82.20
2017-11-12T18:20:47.277Z,81.90
2017-11-12T18:23:14.813Z,82.30
2017-11-12T18:25:42.312Z,82.40
2017-11-12T18:28:09.808Z,82.40
2017-11-12T18:30:37.320Z,82.60
2017-11-12T18:33:05.576Z,82.90
2017-11-12T18:35:33.092Z,82.50
2017-11-12T18:40:29.456Z,82.30
2017-11-12T18:42:57.350Z,82.20
2017-11-12T18:45:24.880Z,82.30
2017-11-12T18:47:53.882Z,83.00
2017-11-12T18:50:21.413Z,82.50
2017-11-12T18:52:49.672Z,82.70
2017-11-12T18:55:33.974Z,82.60
2017-11-12T18:58:02.802Z,81.90
2017-11-12T19:00:51.172Z,82.20
2017-11-12T19:03:36.373Z,81.70
2017-11-12T19:06:10.612Z,82.00
2017-11-12T19:08:38.122Z,81.90
2017-11-12T19:11:06.412Z,81.80
2017-11-12T19:13:33.904Z,81.50
2017-11-12T19:16:01.420Z,82.00
2017-11-12T19:18:29.676Z,81.70
2017-11-12T19:21:07.122Z,81.50
2017-11-12T19:23:35.520Z,81.60
2017-11-12T19:26:04.881Z,81.70
2017-11-12T19:28:38.361Z,81.50
2017-11-12T19:31:06.640Z,82.40
2017-11-12T19:33:34.165Z,82.20
2017-11-12T19:36:01.673Z,82.20
2017-11-12T19:41:00.308Z,82.00
2017-11-12T19:43:27.824Z,82.20
2017-11-12T19:45:56.448Z,81.80
2017-11-12T19:48:24.053Z,82.20
2017-11-12T19:50:51.568Z,81.60
2017-11-12T19:53:19.080Z,81.70
2017-11-12T19:55:46.612Z,81.00
2017-11-12T19:58:14.131Z,81.50
2017-11-12T20:00:41.621Z,81.10
2017-11-12T20:03:09.606Z,81.50
2017-11-12T20:05:37.105Z,81.50
2017-11-12T20:08:04.599Z,80.90
2017-11-12T20:10:32.112Z,81.00
2017-11-12T20:12:59.672Z,81.40
2017-11-12T20:15:27.188Z,81.40
2017-11-12T20:17:54.996Z,81.50
2017-11-12T20:20:23.308Z,81.40
2017-11-12T20:22:50.809Z,81.10
2017-11-12T20:25:19.840Z,81.20
2017-11-12T20:27:47.406Z,80.40
2017-11-12T20:30:15.316Z,80.90
2017-11-12T20:32:42.808Z,80.50
2017-11-12T20:35:10.340Z,80.10
2017-11-12T20:37:38.232Z,80.30
2017-11-12T20:40:05.742Z,80.90
2017-11-12T20:42:33.252Z,80.10
2017-11-12T20:45:00.755Z,80.50
2017-11-12T20:47:28.269Z,80.70
2017-11-12T20:49:55.777Z,80.50
2017-11-12T20:52:24.384Z,80.40
2017-11-12T20:54:51.908Z,80.30
2017-11-12T20:57:19.421Z,80.00
2017-11-12T20:59:46.924Z,79.50
2017-11-12T21:02:15.944Z,79.00
2017-11-12T21:04:45.476Z,79.30
2017-11-12T21:07:14.154Z,80.60
2017-11-12T21:09:42.780Z,79.20
2017-11-12T21:12:11.408Z,79.00
2017-11-12T21:14:40.428Z,79.00
2017-11-12T21:17:07.925Z,79.30
2017-11-12T21:19:38.400Z,79.50
2017-11-12T21:22:06.472Z,79.20
2017-11-12T21:24:35.646Z,79.00
2017-11-12T21:27:15.917Z,78.50
2017-11-12T21:29:45.421Z,79.00
2017-11-12T21:32:14.145Z,78.60
2017-11-12T21:37:25.908Z,79.20
2017-11-12T21:39:53.432Z,79.20
2017-11-12T21:42:20.933Z,79.00
2017-11-12T21:44:49.189Z,79.00
2017-11-12T21:47:16.704Z,78.90
2017-11-12T21:49:44.196Z,78.40
2017-11-12T21:52:12.477Z,79.20
2017-11-12T21:54:40.107Z,78.60
2017-11-12T21:57:09.125Z,79.10
2017-11-12T21:59:36.617Z,78.90
2017-11-12T22:02:04.911Z,78.40
2017-11-12T22:04:33.912Z,78.00
2017-11-12T22:07:01.469Z,78.20
2017-11-12T22:09:28.960Z,78.70
2017-11-12T22:11:56.586Z,78.70
2017-11-12T22:14:25.600Z,78.80
2017-11-12T22:16:53.523Z,78.50
2017-11-12T22:19:21.192Z,78.60
2017-11-12T22:21:48.685Z,78.70
2017-11-12T22:24:16.307Z,78.30
2017-11-12T22:26:44.197Z,77.30
2017-11-12T22:29:11.709Z,77.60
2017-11-12T22:31:39.964Z,78.30
2017-11-12T22:34:07.478Z,77.30
2017-11-12T22:36:34.968Z,77.10
2017-11-12T22:39:03.627Z,77.40
2017-11-12T22:41:31.125Z,77.10
2017-11-12T22:43:59.409Z,76.80
2017-11-12T22:46:26.906Z,77.10
2017-11-12T22:48:54.425Z,77.30
2017-11-12T22:51:21.933Z,77.40
2017-11-12T22:53:49.444Z,77.10
2017-11-12T22:56:17.102Z,77.30
2017-11-12T22:58:44.761Z,77.00
2017-11-12T23:01:12.649Z,77.10
2017-11-12T23:03:40.283Z,76.90
2017-11-12T23:06:08.556Z,76.90
2017-11-12T23:08:36.090Z,76.60
2017-11-12T23:11:05.092Z,76.40
2017-11-12T23:13:32.613Z,76.00
2017-11-12T23:16:01.265Z,76.00
2017-11-12T23:18:29.525Z,76.00
2017-11-12T23:20:57.440Z,75.60
2017-11-12T23:23:25.035Z,75.90
2017-11-12T23:25:52.548Z,75.90
2017-11-12T23:28:20.050Z,76.00
2017-11-12T23:30:47.988Z,75.90
2017-11-12T23:33:15.664Z,75.80
2017-11-12T23:35:43.328Z,75.70
2017-11-12T23:38:10.965Z,75.90
2017-11-12T23:40:38.479Z,75.90
2017-11-12T23:43:06.732Z,76.00
2017-11-12T23:45:34.245Z,75.70
2017-11-12T23:48:02.872Z,75.50
2017-11-12T23:50:30.386Z,75.70
2017-11-12T23:52:59.379Z,75.70
2017-11-12T23:55:26.888Z,75.70
2017-11-12T23:57:54.505Z,75.60
